Terminal Aerodrome Forecast
Issued by NWS

Home | Current Version | Previous Version | Text Only | Print | Product List | Glossary On
Versions: 1 2 3 4 5 6 7 8 9 10 11 12 13 14 15 16 17 18 19
000
FTUS43 KLSX 091731
TAFCPS
TAF
KCPS 091731Z 0918/1018 31015G25KT P6SM VCSH OVC025
     FM092300 31015G23KT P6SM BKN025
     FM101000 31012KT P6SM BKN140=

USA.gov is the U.S. government's official web portal to all federal, state and local government web resources and services.